sensor_id;sensor_type;location;lat;lon;timestamp;temperature;humidity
70676;DHT22;59069;52.242;20.900;2023-02-12T00:00:36;2.34;76.45
70676;DHT22;59069;52.242;20.900;2023-02-12T00:03:02;2.33;76.36
70676;DHT22;59069;52.242;20.900;2023-02-12T00:05:28;2.31;76.34
70676;DHT22;59069;52.242;20.900;2023-02-12T00:07:54;2.30;76.35
70676;DHT22;59069;52.242;20.900;2023-02-12T00:10:20;2.30;76.39
70676;DHT22;59069;52.242;20.900;2023-02-12T00:12:45;2.29;76.21
70676;DHT22;59069;52.242;20.900;2023-02-12T00:15:11;2.31;76.23
70676;DHT22;59069;52.242;20.900;2023-02-12T00:17:36;2.27;76.30
70676;DHT22;59069;52.242;20.900;2023-02-12T00:20:03;2.29;76.12
70676;DHT22;59069;52.242;20.900;2023-02-12T00:22:28;2.26;76.07
70676;DHT22;59069;52.242;20.900;2023-02-12T00:24:54;2.26;76.09
70676;DHT22;59069;52.242;20.900;2023-02-12T00:27:20;2.24;76.09
70676;DHT22;59069;52.242;20.900;2023-02-12T00:29:46;2.20;75.74
70676;DHT22;59069;52.242;20.900;2023-02-12T00:32:12;2.14;75.47
70676;DHT22;59069;52.242;20.900;2023-02-12T00:34:39;2.10;75.42
70676;DHT22;59069;52.242;20.900;2023-02-12T00:37:05;2.05;75.41
70676;DHT22;59069;52.242;20.900;2023-02-12T00:39:31;2.00;75.31
70676;DHT22;59069;52.242;20.900;2023-02-12T00:41:56;2.02;75.31
70676;DHT22;59069;52.242;20.900;2023-02-12T00:44:22;2.00;75.33
70676;DHT22;59069;52.242;20.900;2023-02-12T00:46:48;2.05;75.32
70676;DHT22;59069;52.242;20.900;2023-02-12T00:49:14;2.02;75.24
70676;DHT22;59069;52.242;20.900;2023-02-12T00:51:40;2.05;75.10
70676;DHT22;59069;52.242;20.900;2023-02-12T00:54:05;2.02;75.02
70676;DHT22;59069;52.242;20.900;2023-02-12T00:56:31;1.99;74.98
70676;DHT22;59069;52.242;20.900;2023-02-12T00:58:58;1.98;74.86
70676;DHT22;59069;52.242;20.900;2023-02-12T01:01:23;1.95;74.69
70676;DHT22;59069;52.242;20.900;2023-02-12T01:03:49;1.96;74.57
70676;DHT22;59069;52.242;20.900;2023-02-12T01:06:15;1.92;74.39
70676;DHT22;59069;52.242;20.900;2023-02-12T01:08:40;1.95;74.38
70676;DHT22;59069;52.242;20.900;2023-02-12T01:11:06;1.90;74.26
70676;DHT22;59069;52.242;20.900;2023-02-12T01:13:33;1.90;74.24
70676;DHT22;59069;52.242;20.900;2023-02-12T01:16:20;1.90;74.15
70676;DHT22;59069;52.242;20.900;2023-02-12T01:18:47;1.89;74.08
70676;DHT22;59069;52.242;20.900;2023-02-12T01:21:33;1.89;74.04
70676;DHT22;59069;52.242;20.900;2023-02-12T01:24:00;1.89;74.07
70676;DHT22;59069;52.242;20.900;2023-02-12T01:26:27;1.90;73.96
70676;DHT22;59069;52.242;20.900;2023-02-12T01:28:57;1.89;73.89
70676;DHT22;59069;52.242;20.900;2023-02-12T01:31:28;1.92;73.71
70676;DHT22;59069;52.242;20.900;2023-02-12T01:33:56;1.92;73.66
70676;DHT22;59069;52.242;20.900;2023-02-12T01:36:23;1.95;73.56
70676;DHT22;59069;52.242;20.900;2023-02-12T01:38:50;1.93;73.58
70676;DHT22;59069;52.242;20.900;2023-02-12T01:41:22;1.93;73.59
70676;DHT22;59069;52.242;20.900;2023-02-12T01:44:12;1.95;73.58
70676;DHT22;59069;52.242;20.900;2023-02-12T01:46:39;1.95;73.52
70676;DHT22;59069;52.242;20.900;2023-02-12T01:49:09;1.95;73.51
70676;DHT22;59069;52.242;20.900;2023-02-12T01:51:36;1.93;73.30
70676;DHT22;59069;52.242;20.900;2023-02-12T01:54:05;1.90;73.11
70676;DHT22;59069;52.242;20.900;2023-02-12T01:56:33;1.85;73.08
70676;DHT22;59069;52.242;20.900;2023-02-12T01:58:59;1.83;73.17
70676;DHT22;59069;52.242;20.900;2023-02-12T02:01:27;1.83;73.35
70676;DHT22;59069;52.242;20.900;2023-02-12T02:03:58;1.85;73.44
70676;DHT22;59069;52.242;20.900;2023-02-12T02:06:29;1.89;73.42
70676;DHT22;59069;52.242;20.900;2023-02-12T02:08:56;1.92;73.31
70676;DHT22;59069;52.242;20.900;2023-02-12T02:11:22;1.93;73.25
70676;DHT22;59069;52.242;20.900;2023-02-12T02:14:06;1.93;73.03
70676;DHT22;59069;52.242;20.900;2023-02-12T02:23:09;1.95;72.74
70676;DHT22;59069;52.242;20.900;2023-02-12T02:33:52;1.90;72.60
70676;DHT22;59069;52.242;20.900;2023-02-12T02:36:24;1.92;72.52
70676;DHT22;59069;52.242;20.900;2023-02-12T02:39:03;1.92;72.57
70676;DHT22;59069;52.242;20.900;2023-02-12T02:41:47;1.92;72.71
70676;DHT22;59069;52.242;20.900;2023-02-12T02:44:21;1.92;72.49
70676;DHT22;59069;52.242;20.900;2023-02-12T02:46:50;1.90;72.36
70676;DHT22;59069;52.242;20.900;2023-02-12T02:49:24;1.90;72.24
70676;DHT22;59069;52.242;20.900;2023-02-12T02:51:58;1.86;71.98
70676;DHT22;59069;52.242;20.900;2023-02-12T02:54:31;1.82;71.77
70676;DHT22;59069;52.242;20.900;2023-02-12T02:57:05;1.83;71.74
70676;DHT22;59069;52.242;20.900;2023-02-12T02:59:35;1.80;71.76
70676;DHT22;59069;52.242;20.900;2023-02-12T03:02:10;1.83;71.71
70676;DHT22;59069;52.242;20.900;2023-02-12T03:05:01;1.83;71.52
70676;DHT22;59069;52.242;20.900;2023-02-12T03:07:32;1.79;71.59
70676;DHT22;59069;52.242;20.900;2023-02-12T03:10:05;1.78;71.61
70676;DHT22;59069;52.242;20.900;2023-02-12T03:12:37;1.78;71.41
70676;DHT22;59069;52.242;20.900;2023-02-12T03:15:07;1.79;71.30
70676;DHT22;59069;52.242;20.900;2023-02-12T03:17:38;1.75;71.12
70676;DHT22;59069;52.242;20.900;2023-02-12T03:20:11;1.72;70.98
70676;DHT22;59069;52.242;20.900;2023-02-12T03:22:43;1.71;71.03
70676;DHT22;59069;52.242;20.900;2023-02-12T03:25:14;1.72;71.06
70676;DHT22;59069;52.242;20.900;2023-02-12T03:27:48;1.75;71.01
70676;DHT22;59069;52.242;20.900;2023-02-12T03:30:16;1.76;70.94
70676;DHT22;59069;52.242;20.900;2023-02-12T03:35:54;1.80;70.89
70676;DHT22;59069;52.242;20.900;2023-02-12T03:38:41;1.82;70.83
70676;DHT22;59069;52.242;20.900;2023-02-12T03:41:38;1.79;70.78
70676;DHT22;59069;52.242;20.900;2023-02-12T03:44:49;1.79;70.64
70676;DHT22;59069;52.242;20.900;2023-02-12T03:52:27;1.75;70.78
70676;DHT22;59069;52.242;20.900;2023-02-12T03:54:53;1.73;70.84
70676;DHT22;59069;52.242;20.900;2023-02-12T03:57:21;1.75;70.72
70676;DHT22;59069;52.242;20.900;2023-02-12T03:59:47;1.72;70.59
70676;DHT22;59069;52.242;20.900;2023-02-12T04:02:15;1.75;70.49
70676;DHT22;59069;52.242;20.900;2023-02-12T04:04:41;1.78;70.43
70676;DHT22;59069;52.242;20.900;2023-02-12T04:07:08;1.75;70.27
70676;DHT22;59069;52.242;20.900;2023-02-12T04:09:34;1.72;70.21
70676;DHT22;59069;52.242;20.900;2023-02-12T04:20:43;1.80;70.32
70676;DHT22;59069;52.242;20.900;2023-02-12T04:23:32;1.78;70.43
70676;DHT22;59069;52.242;20.900;2023-02-12T04:31:25;1.75;70.30
70676;DHT22;59069;52.242;20.900;2023-02-12T04:34:04;1.72;70.11
70676;DHT22;59069;52.242;20.900;2023-02-12T04:36:36;1.71;69.93
70676;DHT22;59069;52.242;20.900;2023-02-12T04:39:07;1.71;69.92
70676;DHT22;59069;52.242;20.900;2023-02-12T04:41:37;1.72;69.93
70676;DHT22;59069;52.242;20.900;2023-02-12T04:44:23;1.69;69.80
70676;DHT22;59069;52.242;20.900;2023-02-12T04:46:50;1.62;69.88
70676;DHT22;59069;52.242;20.900;2023-02-12T04:49:17;1.63;69.96
70676;DHT22;59069;52.242;20.900;2023-02-12T04:51:43;1.62;69.88
70676;DHT22;59069;52.242;20.900;2023-02-12T04:54:09;1.59;69.84
70676;DHT22;59069;52.242;20.900;2023-02-12T04:56:34;1.59;69.87
70676;DHT22;59069;52.242;20.900;2023-02-12T04:59:00;1.59;69.88
70676;DHT22;59069;52.242;20.900;2023-02-12T05:01:26;1.56;69.79
70676;DHT22;59069;52.242;20.900;2023-02-12T05:03:51;1.58;69.83
70676;DHT22;59069;52.242;20.900;2023-02-12T05:06:17;1.55;69.72
70676;DHT22;59069;52.242;20.900;2023-02-12T05:08:43;1.52;69.67
70676;DHT22;59069;52.242;20.900;2023-02-12T05:11:10;1.52;69.75
70676;DHT22;59069;52.242;20.900;2023-02-12T05:13:36;1.51;69.81
70676;DHT22;59069;52.242;20.900;2023-02-12T05:16:06;1.48;69.78
70676;DHT22;59069;52.242;20.900;2023-02-12T05:18:33;1.49;69.81
70676;DHT22;59069;52.242;20.900;2023-02-12T05:21:02;1.48;69.94
70676;DHT22;59069;52.242;20.900;2023-02-12T05:23:29;1.49;69.92
70676;DHT22;59069;52.242;20.900;2023-02-12T05:25:59;1.52;69.90
70676;DHT22;59069;52.242;20.900;2023-02-12T05:28:26;1.49;69.98
70676;DHT22;59069;52.242;20.900;2023-02-12T05:30:51;1.49;69.92
70676;DHT22;59069;52.242;20.900;2023-02-12T05:33:17;1.48;69.88
70676;DHT22;59069;52.242;20.900;2023-02-12T05:35:42;1.47;69.84
70676;DHT22;59069;52.242;20.900;2023-02-12T05:38:08;1.47;69.81
70676;DHT22;59069;52.242;20.900;2023-02-12T05:40:33;1.49;69.88
70676;DHT22;59069;52.242;20.900;2023-02-12T05:43:00;1.51;69.92
70676;DHT22;59069;52.242;20.900;2023-02-12T05:45:26;1.49;69.96
70676;DHT22;59069;52.242;20.900;2023-02-12T05:47:56;1.47;69.92
70676;DHT22;59069;52.242;20.900;2023-02-12T05:50:22;1.47;69.92
70676;DHT22;59069;52.242;20.900;2023-02-12T05:52:47;1.45;69.89
70676;DHT22;59069;52.242;20.900;2023-02-12T05:55:13;1.45;69.88
70676;DHT22;59069;52.242;20.900;2023-02-12T05:57:39;1.45;69.86
70676;DHT22;59069;52.242;20.900;2023-02-12T06:00:06;1.47;70.01
70676;DHT22;59069;52.242;20.900;2023-02-12T06:02:33;1.45;69.77
70676;DHT22;59069;52.242;20.900;2023-02-12T06:04:59;1.42;69.72
70676;DHT22;59069;52.242;20.900;2023-02-12T06:07:24;1.44;69.87
70676;DHT22;59069;52.242;20.900;2023-02-12T06:09:50;1.47;69.94
70676;DHT22;59069;52.242;20.900;2023-02-12T06:12:16;1.49;70.04
70676;DHT22;59069;52.242;20.900;2023-02-12T06:14:42;1.54;69.95
70676;DHT22;59069;52.242;20.900;2023-02-12T06:17:07;1.58;69.99
70676;DHT22;59069;52.242;20.900;2023-02-12T06:19:33;1.62;69.99
70676;DHT22;59069;52.242;20.900;2023-02-12T06:21:59;1.66;70.05
70676;DHT22;59069;52.242;20.900;2023-02-12T06:24:24;1.66;69.88
70676;DHT22;59069;52.242;20.900;2023-02-12T06:26:50;1.71;69.76
70676;DHT22;59069;52.242;20.900;2023-02-12T06:29:17;1.71;69.77
70676;DHT22;59069;52.242;20.900;2023-02-12T06:31:42;1.69;69.73
70676;DHT22;59069;52.242;20.900;2023-02-12T06:34:09;1.66;69.75
70676;DHT22;59069;52.242;20.900;2023-02-12T06:36:38;1.69;69.87
70676;DHT22;59069;52.242;20.900;2023-02-12T06:39:04;1.72;69.96
70676;DHT22;59069;52.242;20.900;2023-02-12T06:41:30;1.72;69.86
70676;DHT22;59069;52.242;20.900;2023-02-12T06:43:55;1.75;69.93
70676;DHT22;59069;52.242;20.900;2023-02-12T06:46:22;1.79;70.01
70676;DHT22;59069;52.242;20.900;2023-02-12T06:48:47;1.85;70.13
70676;DHT22;59069;52.242;20.900;2023-02-12T06:51:17;2.05;70.76
70676;DHT22;59069;52.242;20.900;2023-02-12T06:53:43;2.21;70.53
70676;DHT22;59069;52.242;20.900;2023-02-12T06:56:10;2.29;69.66
70676;DHT22;59069;52.242;20.900;2023-02-12T06:58:43;2.31;69.07
70676;DHT22;59069;52.242;20.900;2023-02-12T07:01:14;2.33;68.91
70676;DHT22;59069;52.242;20.900;2023-02-12T07:03:52;2.36;68.91
70676;DHT22;59069;52.242;20.900;2023-02-12T07:06:20;2.33;68.58
70676;DHT22;59069;52.242;20.900;2023-02-12T07:08:45;2.34;68.34
70676;DHT22;59069;52.242;20.900;2023-02-12T07:11:11;2.33;68.39
70676;DHT22;59069;52.242;20.900;2023-02-12T07:13:39;2.34;68.24
70676;DHT22;59069;52.242;20.900;2023-02-12T07:16:11;2.40;68.14
70676;DHT22;59069;52.242;20.900;2023-02-12T07:18:37;2.37;68.01
70676;DHT22;59069;52.242;20.900;2023-02-12T07:21:05;2.36;67.80
70676;DHT22;59069;52.242;20.900;2023-02-12T07:23:31;2.37;68.06
70676;DHT22;59069;52.242;20.900;2023-02-12T07:25:59;2.38;68.09
70676;DHT22;59069;52.242;20.900;2023-02-12T07:28:25;2.36;68.07
70676;DHT22;59069;52.242;20.900;2023-02-12T07:30:51;2.38;68.20
70676;DHT22;59069;52.242;20.900;2023-02-12T07:33:17;2.41;68.11
70676;DHT22;59069;52.242;20.900;2023-02-12T07:35:43;2.45;67.74
70676;DHT22;59069;52.242;20.900;2023-02-12T07:38:09;2.54;67.37
70676;DHT22;59069;52.242;20.900;2023-02-12T07:40:35;2.53;67.12
70676;DHT22;59069;52.242;20.900;2023-02-12T07:43:00;2.54;67.02
70676;DHT22;59069;52.242;20.900;2023-02-12T07:45:26;2.51;67.00
70676;DHT22;59069;52.242;20.900;2023-02-12T07:47:51;2.51;67.19
70676;DHT22;59069;52.242;20.900;2023-02-12T07:50:17;2.51;67.27
70676;DHT22;59069;52.242;20.900;2023-02-12T07:52:43;2.51;67.09
70676;DHT22;59069;52.242;20.900;2023-02-12T07:55:09;2.48;66.85
70676;DHT22;59069;52.242;20.900;2023-02-12T07:57:35;2.48;66.85
70676;DHT22;59069;52.242;20.900;2023-02-12T08:00:01;2.43;66.78
70676;DHT22;59069;52.242;20.900;2023-02-12T08:02:27;2.41;66.77
70676;DHT22;59069;52.242;20.900;2023-02-12T08:04:57;2.40;66.91
70676;DHT22;59069;52.242;20.900;2023-02-12T08:07:22;2.38;67.05
70676;DHT22;59069;52.242;20.900;2023-02-12T08:09:48;2.43;67.05
70676;DHT22;59069;52.242;20.900;2023-02-12T08:12:14;2.43;66.99
70676;DHT22;59069;52.242;20.900;2023-02-12T08:14:39;2.40;67.11
70676;DHT22;59069;52.242;20.900;2023-02-12T08:17:05;2.41;66.98
70676;DHT22;59069;52.242;20.900;2023-02-12T08:19:30;2.43;67.08
70676;DHT22;59069;52.242;20.900;2023-02-12T08:21:56;2.47;67.17
70676;DHT22;59069;52.242;20.900;2023-02-12T08:24:23;2.53;67.24
70676;DHT22;59069;52.242;20.900;2023-02-12T08:26:49;2.54;66.99
70676;DHT22;59069;52.242;20.900;2023-02-12T08:29:17;2.53;66.52
70676;DHT22;59069;52.242;20.900;2023-02-12T08:31:46;2.50;66.42
70676;DHT22;59069;52.242;20.900;2023-02-12T08:34:23;2.48;66.60
70676;DHT22;59069;52.242;20.900;2023-02-12T08:36:51;2.53;66.91
70676;DHT22;59069;52.242;20.900;2023-02-12T08:39:18;2.54;66.62
70676;DHT22;59069;52.242;20.900;2023-02-12T08:41:44;2.57;66.43
70676;DHT22;59069;52.242;20.900;2023-02-12T08:44:11;2.57;66.56
70676;DHT22;59069;52.242;20.900;2023-02-12T08:46:42;2.70;66.67
70676;DHT22;59069;52.242;20.900;2023-02-12T08:49:13;2.81;66.45
70676;DHT22;59069;52.242;20.900;2023-02-12T08:51:42;2.95;66.23
70676;DHT22;59069;52.242;20.900;2023-02-12T08:54:11;3.42;78.72
70676;DHT22;59069;52.242;20.900;2023-02-12T08:56:37;3.99;76.16
70676;DHT22;59069;52.242;20.900;2023-02-12T08:59:05;4.80;81.06
70676;DHT22;59069;52.242;20.900;2023-02-12T09:01:34;5.75;81.61
70676;DHT22;59069;52.242;20.900;2023-02-12T09:04:03;6.51;70.68
70676;DHT22;59069;52.242;20.900;2023-02-12T09:06:31;7.02;67.55
70676;DHT22;59069;52.242;20.900;2023-02-12T09:08:57;7.40;56.73
70676;DHT22;59069;52.242;20.900;2023-02-12T09:11:25;7.63;59.19
70676;DHT22;59069;52.242;20.900;2023-02-12T09:13:56;8.21;69.33
70676;DHT22;59069;52.242;20.900;2023-02-12T09:16:23;8.90;61.70
70676;DHT22;59069;52.242;20.900;2023-02-12T09:18:49;9.45;53.31
70676;DHT22;59069;52.242;20.900;2023-02-12T09:21:15;9.65;46.09
70676;DHT22;59069;52.242;20.900;2023-02-12T09:23:42;9.65;39.87
70676;DHT22;59069;52.242;20.900;2023-02-12T09:26:10;9.67;47.16
70676;DHT22;59069;52.242;20.900;2023-02-12T09:28:37;9.52;40.66
70676;DHT22;59069;52.242;20.900;2023-02-12T09:31:08;9.21;38.71
70676;DHT22;59069;52.242;20.900;2023-02-12T09:33:34;8.77;39.61
70676;DHT22;59069;52.242;20.900;2023-02-12T09:36:20;8.53;46.59
70676;DHT22;59069;52.242;20.900;2023-02-12T09:38:46;8.38;42.36
70676;DHT22;59069;52.242;20.900;2023-02-12T09:46:53;8.97;46.52
70676;DHT22;59069;52.242;20.900;2023-02-12T09:52:14;9.54;44.88
70676;DHT22;59069;52.242;20.900;2023-02-12T09:54:42;9.67;42.85
70676;DHT22;59069;52.242;20.900;2023-02-12T09:57:33;10.09;47.32
70676;DHT22;59069;52.242;20.900;2023-02-12T10:00:07;10.50;45.61
70676;DHT22;59069;52.242;20.900;2023-02-12T10:02:35;11.07;50.38
70676;DHT22;59069;52.242;20.900;2023-02-12T10:05:02;11.80;47.18
70676;DHT22;59069;52.242;20.900;2023-02-12T10:13:06;13.58;36.85
70676;DHT22;59069;52.242;20.900;2023-02-12T10:18:36;14.11;33.57
70676;DHT22;59069;52.242;20.900;2023-02-12T10:24:26;13.97;32.49
70676;DHT22;59069;52.242;20.900;2023-02-12T10:26:59;14.06;35.93
70676;DHT22;59069;52.242;20.900;2023-02-12T10:29:32;13.88;35.22
70676;DHT22;59069;52.242;20.900;2023-02-12T10:34:47;12.92;34.75
70676;DHT22;59069;52.242;20.900;2023-02-12T10:37:36;13.02;39.47
70676;DHT22;59069;52.242;20.900;2023-02-12T10:40:23;13.06;36.97
70676;DHT22;59069;52.242;20.900;2023-02-12T10:42:53;12.20;30.47
70676;DHT22;59069;52.242;20.900;2023-02-12T10:45:28;11.07;32.06
70676;DHT22;59069;52.242;20.900;2023-02-12T10:48:04;10.17;35.84
70676;DHT22;59069;52.242;20.900;2023-02-12T10:53:32;9.42;47.26
70676;DHT22;59069;52.242;20.900;2023-02-12T10:58:29;9.93;50.95
70676;DHT22;59069;52.242;20.900;2023-02-12T11:00:57;10.57;49.68
70676;DHT22;59069;52.242;20.900;2023-02-12T11:03:29;9.99;34.92
70676;DHT22;59069;52.242;20.900;2023-02-12T11:08:38;8.26;38.57
70676;DHT22;59069;52.242;20.900;2023-02-12T11:11:10;7.52;41.66
70676;DHT22;59069;52.242;20.900;2023-02-12T11:13:40;6.82;44.25
70676;DHT22;59069;52.242;20.900;2023-02-12T11:16:07;6.29;46.60
70676;DHT22;59069;52.242;20.900;2023-02-12T11:18:33;5.96;48.59
70676;DHT22;59069;52.242;20.900;2023-02-12T11:21:04;5.69;49.95
70676;DHT22;59069;52.242;20.900;2023-02-12T11:23:42;5.34;51.55
70676;DHT22;59069;52.242;20.900;2023-02-12T11:28:53;4.93;53.86
70676;DHT22;59069;52.242;20.900;2023-02-12T11:31:22;4.81;54.68
70676;DHT22;59069;52.242;20.900;2023-02-12T11:36:43;4.53;55.98
70676;DHT22;59069;52.242;20.900;2023-02-12T11:39:19;4.42;56.59
70676;DHT22;59069;52.242;20.900;2023-02-12T11:41:50;4.29;57.24
70676;DHT22;59069;52.242;20.900;2023-02-12T11:44:20;4.21;57.86
70676;DHT22;59069;52.242;20.900;2023-02-12T11:46:53;4.09;58.41
70676;DHT22;59069;52.242;20.900;2023-02-12T11:49:29;4.02;59.06
70676;DHT22;59069;52.242;20.900;2023-02-12T11:51:56;3.97;59.40
70676;DHT22;59069;52.242;20.900;2023-02-12T11:54:26;3.95;59.99
70676;DHT22;59069;52.242;20.900;2023-02-12T11:56:53;3.95;60.59
70676;DHT22;59069;52.242;20.900;2023-02-12T11:59:35;3.97;60.94
70676;DHT22;59069;52.242;20.900;2023-02-12T12:02:30;4.01;61.40
70676;DHT22;59069;52.242;20.900;2023-02-12T12:05:07;4.02;61.40
70676;DHT22;59069;52.242;20.900;2023-02-12T12:07:35;4.01;61.54
70676;DHT22;59069;52.242;20.900;2023-02-12T12:10:30;4.05;61.63
70676;DHT22;59069;52.242;20.900;2023-02-12T12:13:01;4.14;61.57
70676;DHT22;59069;52.242;20.900;2023-02-12T12:15:38;4.22;61.47
70676;DHT22;59069;52.242;20.900;2023-02-12T12:21:56;4.39;60.63
70676;DHT22;59069;52.242;20.900;2023-02-12T12:24:44;4.46;60.13
70676;DHT22;59069;52.242;20.900;2023-02-12T12:27:36;4.50;60.00
70676;DHT22;59069;52.242;20.900;2023-02-12T12:30:40;4.59;60.21
70676;DHT22;59069;52.242;20.900;2023-02-12T12:35:53;4.79;59.91
70676;DHT22;59069;52.242;20.900;2023-02-12T12:41:06;4.93;59.32
70676;DHT22;59069;52.242;20.900;2023-02-12T12:43:53;4.86;58.98
70676;DHT22;59069;52.242;20.900;2023-02-12T12:46:33;4.72;58.59
70676;DHT22;59069;52.242;20.900;2023-02-12T12:58:03;4.65;60.03
70676;DHT22;59069;52.242;20.900;2023-02-12T13:03:17;4.57;59.46
70676;DHT22;59069;52.242;20.900;2023-02-12T13:06:18;4.52;59.46
70676;DHT22;59069;52.242;20.900;2023-02-12T13:14:38;4.62;60.27
70676;DHT22;59069;52.242;20.900;2023-02-12T13:20:08;4.70;60.80
70676;DHT22;59069;52.242;20.900;2023-02-12T13:25:34;4.81;61.47
70676;DHT22;59069;52.242;20.900;2023-02-12T13:28:02;4.79;61.36
70676;DHT22;59069;52.242;20.900;2023-02-12T13:30:35;4.79;61.40
70676;DHT22;59069;52.242;20.900;2023-02-12T13:35:34;4.77;61.66
70676;DHT22;59069;52.242;20.900;2023-02-12T13:38:02;4.84;61.86
70676;DHT22;59069;52.242;20.900;2023-02-12T13:40:30;4.86;61.82
70676;DHT22;59069;52.242;20.900;2023-02-12T13:51:42;5.14;61.61
70676;DHT22;59069;52.242;20.900;2023-02-12T13:57:02;5.13;61.39
70676;DHT22;59069;52.242;20.900;2023-02-12T14:05:02;5.08;61.38
70676;DHT22;59069;52.242;20.900;2023-02-12T14:08:05;5.06;61.52
70676;DHT22;59069;52.242;20.900;2023-02-12T14:10:40;5.06;61.56
70676;DHT22;59069;52.242;20.900;2023-02-12T14:13:21;5.03;61.66
70676;DHT22;59069;52.242;20.900;2023-02-12T14:15:54;5.07;61.89
70676;DHT22;59069;52.242;20.900;2023-02-12T14:18:35;5.07;62.05
70676;DHT22;59069;52.242;20.900;2023-02-12T14:23:35;5.10;62.57
70676;DHT22;59069;52.242;20.900;2023-02-12T14:26:09;5.08;62.61
70676;DHT22;59069;52.242;20.900;2023-02-12T14:33:49;4.97;63.05
70676;DHT22;59069;52.242;20.900;2023-02-12T14:39:26;4.87;63.65
70676;DHT22;59069;52.242;20.900;2023-02-12T14:42:40;4.84;63.75
70676;DHT22;59069;52.242;20.900;2023-02-12T14:44:45;4.79;63.57
70676;DHT22;59069;52.242;20.900;2023-02-12T14:47:14;4.70;63.39
70676;DHT22;59069;52.242;20.900;2023-02-12T14:49:47;4.59;63.58
70676;DHT22;59069;52.242;20.900;2023-02-12T14:59:57;4.19;64.68
70676;DHT22;59069;52.242;20.900;2023-02-12T15:02:28;4.05;64.88
70676;DHT22;59069;52.242;20.900;2023-02-12T15:05:06;3.95;65.27
70676;DHT22;59069;52.242;20.900;2023-02-12T15:07:43;3.83;65.61
70676;DHT22;59069;52.242;20.900;2023-02-12T15:10:21;3.73;65.88
70676;DHT22;59069;52.242;20.900;2023-02-12T15:16:05;3.50;66.64
70676;DHT22;59069;52.242;20.900;2023-02-12T15:23:45;3.30;67.61
70676;DHT22;59069;52.242;20.900;2023-02-12T15:26:17;3.19;67.96
70676;DHT22;59069;52.242;20.900;2023-02-12T15:28:48;3.12;68.32
70676;DHT22;59069;52.242;20.900;2023-02-12T15:31:16;3.08;68.68
70676;DHT22;59069;52.242;20.900;2023-02-12T15:33:47;2.99;68.97
70676;DHT22;59069;52.242;20.900;2023-02-12T15:36:19;2.91;69.31
70676;DHT22;59069;52.242;20.900;2023-02-12T15:39:04;2.85;69.85
70676;DHT22;59069;52.242;20.900;2023-02-12T15:44:00;2.71;70.59
70676;DHT22;59069;52.242;20.900;2023-02-12T15:46:26;2.65;70.89
70676;DHT22;59069;52.242;20.900;2023-02-12T15:48:51;2.60;71.16
70676;DHT22;59069;52.242;20.900;2023-02-12T15:51:32;2.55;71.49
70676;DHT22;59069;52.242;20.900;2023-02-12T15:53:59;2.54;71.79
70676;DHT22;59069;52.242;20.900;2023-02-12T15:56:29;2.50;72.12
70676;DHT22;59069;52.242;20.900;2023-02-12T15:58:59;2.43;72.38
70676;DHT22;59069;52.242;20.900;2023-02-12T16:01:32;2.38;72.68
70676;DHT22;59069;52.242;20.900;2023-02-12T16:03:59;2.31;72.96
70676;DHT22;59069;52.242;20.900;2023-02-12T16:06:27;2.29;73.32
70676;DHT22;59069;52.242;20.900;2023-02-12T16:08:58;2.26;73.53
70676;DHT22;59069;52.242;20.900;2023-02-12T16:11:27;2.21;73.92
70676;DHT22;59069;52.242;20.900;2023-02-12T16:14:06;2.20;74.15
70676;DHT22;59069;52.242;20.900;2023-02-12T16:16:59;2.14;74.45
70676;DHT22;59069;52.242;20.900;2023-02-12T16:19:29;2.13;74.52
70676;DHT22;59069;52.242;20.900;2023-02-12T16:21:58;2.13;74.81
70676;DHT22;59069;52.242;20.900;2023-02-12T16:24:39;2.12;74.96
70676;DHT22;59069;52.242;20.900;2023-02-12T16:27:20;2.07;75.21
70676;DHT22;59069;52.242;20.900;2023-02-12T16:29:49;2.06;75.47
70676;DHT22;59069;52.242;20.900;2023-02-12T16:32:37;2.02;75.63
70676;DHT22;59069;52.242;20.900;2023-02-12T16:40:20;1.98;76.29
70676;DHT22;59069;52.242;20.900;2023-02-12T16:47:52;1.92;76.83
70676;DHT22;59069;52.242;20.900;2023-02-12T16:50:20;1.89;77.00
70676;DHT22;59069;52.242;20.900;2023-02-12T16:52:48;1.89;77.11
70676;DHT22;59069;52.242;20.900;2023-02-12T16:55:16;1.85;77.29
70676;DHT22;59069;52.242;20.900;2023-02-12T16:57:43;1.83;77.47
70676;DHT22;59069;52.242;20.900;2023-02-12T17:00:14;1.80;77.60
70676;DHT22;59069;52.242;20.900;2023-02-12T17:02:40;1.82;77.66
70676;DHT22;59069;52.242;20.900;2023-02-12T17:05:06;1.80;77.77
70676;DHT22;59069;52.242;20.900;2023-02-12T17:07:33;1.79;77.90
70676;DHT22;59069;52.242;20.900;2023-02-12T17:09:59;1.80;77.96
70676;DHT22;59069;52.242;20.900;2023-02-12T17:12:25;1.78;78.22
70676;DHT22;59069;52.242;20.900;2023-02-12T17:14:51;1.78;78.37
70676;DHT22;59069;52.242;20.900;2023-02-12T17:17:17;1.73;78.47
70676;DHT22;59069;52.242;20.900;2023-02-12T17:19:43;1.73;78.64
70676;DHT22;59069;52.242;20.900;2023-02-12T17:22:21;1.72;78.72
70676;DHT22;59069;52.242;20.900;2023-02-12T17:24:47;1.73;78.88
70676;DHT22;59069;52.242;20.900;2023-02-12T17:27:16;1.71;78.95
70676;DHT22;59069;52.242;20.900;2023-02-12T17:29:43;1.69;79.12
70676;DHT22;59069;52.242;20.900;2023-02-12T17:32:08;1.68;79.26
70676;DHT22;59069;52.242;20.900;2023-02-12T17:34:35;1.66;79.42
70676;DHT22;59069;52.242;20.900;2023-02-12T17:37:05;1.63;79.60
70676;DHT22;59069;52.242;20.900;2023-02-12T17:39:31;1.61;79.71
70676;DHT22;59069;52.242;20.900;2023-02-12T17:41:57;1.59;79.82
70676;DHT22;59069;52.242;20.900;2023-02-12T17:44:25;1.58;80.08
70676;DHT22;59069;52.242;20.900;2023-02-12T17:46:51;1.59;80.34
70676;DHT22;59069;52.242;20.900;2023-02-12T17:49:17;1.58;80.83
70676;DHT22;59069;52.242;20.900;2023-02-12T17:51:43;1.65;81.18
70676;DHT22;59069;52.242;20.900;2023-02-12T17:54:09;1.69;81.30
70676;DHT22;59069;52.242;20.900;2023-02-12T17:56:34;1.73;81.35
70676;DHT22;59069;52.242;20.900;2023-02-12T17:59:00;1.82;81.34
70676;DHT22;59069;52.242;20.900;2023-02-12T18:01:26;1.87;81.28
70676;DHT22;59069;52.242;20.900;2023-02-12T18:03:52;1.89;81.26
70676;DHT22;59069;52.242;20.900;2023-02-12T18:06:29;1.93;81.24
70676;DHT22;59069;52.242;20.900;2023-02-12T18:08:56;1.96;81.19
70676;DHT22;59069;52.242;20.900;2023-02-12T18:11:23;1.99;81.15
70676;DHT22;59069;52.242;20.900;2023-02-12T18:13:53;2.03;81.26
70676;DHT22;59069;52.242;20.900;2023-02-12T18:16:21;2.06;81.23
70676;DHT22;59069;52.242;20.900;2023-02-12T18:18:47;2.09;81.24
70676;DHT22;59069;52.242;20.900;2023-02-12T18:21:13;2.07;81.26
70676;DHT22;59069;52.242;20.900;2023-02-12T18:23:40;2.09;81.28
70676;DHT22;59069;52.242;20.900;2023-02-12T18:26:07;2.12;81.25
70676;DHT22;59069;52.242;20.900;2023-02-12T18:28:34;2.14;81.24
70676;DHT22;59069;52.242;20.900;2023-02-12T18:31:00;2.14;81.27
70676;DHT22;59069;52.242;20.900;2023-02-12T18:33:26;2.16;81.33